Time;durP1;ratioP1;P1;durP2;ratioP2;P2;SDS_P1;SDS_P2;PMS_P1;PMS_P2;Temp;Humidity;BMP_temperature;BMP_pressure;BME280_temperature;BME280_humidity;BME280_pressure;Samples;Min_cycle;Max_cycle;Signal;HPM_P1;HPM_P2
2023/10/22 00:01:11;;;;;;;3.70;2.30;;;12.30;95.50;;;;;;925217;151;27313;-77
2023/10/22 00:03:36;;;;;;;3.37;2.00;;;12.20;95.70;;;;;;924184;151;27473;-74
2023/10/22 00:06:02;;;;;;;4.63;2.43;;;12.20;95.70;;;;;;901789;153;27960;-73
2023/10/22 00:08:29;;;;;;;3.13;2.10;;;12.20;96.00;;;;;;926900;151;27397;-76
2023/10/22 00:10:55;;;;;;;5.83;2.87;;;12.10;96.20;;;;;;922891;151;27481;-73
2023/10/22 00:13:22;;;;;;;3.70;2.63;;;12.10;96.50;;;;;;924693;151;27349;-73
2023/10/22 00:15:49;;;;;;;5.97;2.87;;;12.10;96.60;;;;;;923989;151;27386;-76
2023/10/22 00:18:15;;;;;;;3.37;2.10;;;12.00;96.80;;;;;;901489;153;27506;-76
2023/10/22 00:20:42;;;;;;;2.37;2.17;;;12.00;97.00;;;;;;922628;151;27375;-73
2023/10/22 00:23:08;;;;;;;2.60;2.10;;;11.90;97.00;;;;;;924950;151;27425;-74
2023/10/22 00:25:35;;;;;;;4.63;1.83;;;11.90;97.10;;;;;;927412;151;27405;-75
2023/10/22 00:28:02;;;;;;;2.23;2.03;;;11.90;97.20;;;;;;925037;151;27389;-74
2023/10/22 00:30:28;;;;;;;2.87;2.00;;;11.80;97.30;;;;;;903853;153;27518;-76
2023/10/22 00:32:55;;;;;;;3.30;2.10;;;11.80;97.40;;;;;;904238;153;27441;-73
2023/10/22 00:35:21;;;;;;;3.87;2.10;;;11.70;97.60;;;;;;903780;153;27485;-74
2023/10/22 00:37:48;;;;;;;3.10;1.80;;;11.70;97.70;;;;;;904427;153;27362;-74
2023/10/22 00:40:15;;;;;;;2.03;1.70;;;11.70;97.80;;;;;;894202;155;27416;-75
2023/10/22 00:42:41;;;;;;;2.43;2.23;;;11.60;97.90;;;;;;894020;156;27372;-75
2023/10/22 00:45:08;;;;;;;4.00;1.70;;;11.60;98.00;;;;;;900851;153;27447;-74
2023/10/22 00:47:34;;;;;;;3.00;2.53;;;11.50;98.20;;;;;;889446;156;27415;-74
2023/10/22 00:50:01;;;;;;;2.83;1.83;;;11.50;98.50;;;;;;925243;151;27398;-76
2023/10/22 00:52:27;;;;;;;4.03;1.93;;;11.50;98.60;;;;;;923905;151;27464;-74
2023/10/22 00:54:54;;;;;;;1.80;1.70;;;11.40;99.10;;;;;;926147;150;27484;-74
2023/10/22 00:57:21;;;;;;;2.30;1.87;;;11.40;98.90;;;;;;924113;151;27331;-76
2023/10/22 00:59:47;;;;;;;3.23;1.97;;;11.40;99.10;;;;;;903275;153;27413;-74
2023/10/22 01:02:14;;;;;;;5.73;2.10;;;11.30;99.30;;;;;;929259;150;27377;-76
2023/10/22 01:04:41;;;;;;;6.83;2.13;;;11.30;99.50;;;;;;932327;150;28106;-75
2023/10/22 01:07:07;;;;;;;2.80;1.87;;;11.30;99.70;;;;;;929169;150;27341;-74
2023/10/22 01:09:34;;;;;;;3.07;1.67;;;11.30;99.90;;;;;;904509;153;27405;-74
2023/10/22 01:12:00;;;;;;;1.50;1.40;;;11.30;99.90;;;;;;929439;151;27395;-76
2023/10/22 01:14:27;;;;;;;3.33;1.67;;;11.30;99.90;;;;;;931669;150;27367;-76
2023/10/22 01:16:53;;;;;;;1.60;1.47;;;11.20;99.90;;;;;;904464;153;27460;-75
2023/10/22 01:19:20;;;;;;;2.93;1.63;;;11.20;99.90;;;;;;895525;156;27447;-74
2023/10/22 01:21:47;;;;;;;1.50;1.40;;;11.20;99.90;;;;;;931319;150;27350;-74
2023/10/22 01:24:13;;;;;;;3.20;1.70;;;11.20;99.90;;;;;;904899;153;27394;-75
2023/10/22 01:26:40;;;;;;;1.30;1.27;;;11.20;99.90;;;;;;910744;153;27496;-75
2023/10/22 01:29:06;;;;;;;3.07;1.70;;;11.20;99.90;;;;;;931628;151;27338;-75
2023/10/22 01:31:33;;;;;;;2.23;1.50;;;11.20;99.90;;;;;;931488;150;27405;-74
2023/10/22 01:33:59;;;;;;;1.50;1.40;;;11.20;99.90;;;;;;931259;150;27418;-74
2023/10/22 01:36:26;;;;;;;1.47;1.20;;;11.20;99.90;;;;;;902704;154;27557;-74
2023/10/22 01:38:53;;;;;;;1.43;1.30;;;11.10;99.90;;;;;;930569;150;27516;-75
2023/10/22 01:41:19;;;;;;;2.00;1.40;;;11.10;99.90;;;;;;903304;154;27389;-76
2023/10/22 01:43:46;;;;;;;1.63;1.33;;;11.10;99.90;;;;;;929947;150;27478;-74
2023/10/22 01:46:12;;;;;;;2.73;1.43;;;11.10;99.90;;;;;;902275;153;27523;-74
2023/10/22 01:48:39;;;;;;;2.00;1.23;;;11.10;99.90;;;;;;895507;157;27442;-75
2023/10/22 01:51:06;;;;;;;1.50;1.27;;;11.10;99.90;;;;;;930571;150;27390;-74
2023/10/22 01:53:33;;;;;;;1.70;1.43;;;11.10;99.90;;;;;;930812;150;27490;-75
2023/10/22 01:55:59;;;;;;;2.90;1.30;;;11.10;99.90;;;;;;927463;150;27968;-74
2023/10/22 01:58:25;;;;;;;1.50;1.40;;;11.10;99.90;;;;;;925379;151;27459;-74
2023/10/22 02:00:58;;;;;;;2.00;1.40;;;11.10;99.90;;;;;;903439;153;27402;-74
2023/10/22 02:03:24;;;;;;;4.60;1.63;;;11.10;99.90;;;;;;924486;150;27361;-76
2023/10/22 02:05:51;;;;;;;3.73;1.73;;;11.00;99.90;;;;;;924774;151;27362;-76
2023/10/22 02:08:19;;;;;;;3.53;1.70;;;11.10;99.90;;;;;;925189;151;27386;-74
2023/10/22 02:10:44;;;;;;;1.73;1.50;;;11.00;99.90;;;;;;925521;151;27706;-76
2023/10/22 02:13:11;;;;;;;1.57;1.47;;;11.00;99.90;;;;;;925611;151;27769;-74
2023/10/22 02:15:37;;;;;;;1.30;1.20;;;11.00;99.90;;;;;;924448;151;27302;-74
2023/10/22 02:18:04;;;;;;;2.40;1.23;;;11.00;99.90;;;;;;924457;151;27442;-74
2023/10/22 02:20:31;;;;;;;2.10;1.50;;;11.00;99.90;;;;;;904577;153;27424;-74
2023/10/22 02:22:57;;;;;;;3.00;1.70;;;11.00;99.90;;;;;;924829;151;27455;-77
2023/10/22 02:25:24;;;;;;;2.77;1.67;;;11.00;99.90;;;;;;925500;151;27494;-77
2023/10/22 02:27:51;;;;;;;1.53;1.20;;;11.00;99.90;;;;;;927969;150;27322;-77
2023/10/22 02:30:17;;;;;;;3.37;1.87;;;10.90;99.90;;;;;;924569;151;27397;-76
2023/10/22 02:32:43;;;;;;;1.70;1.60;;;10.90;99.90;;;;;;905081;153;27361;-76
2023/10/22 02:35:10;;;;;;;2.90;1.50;;;10.90;99.90;;;;;;924020;151;27339;-76
2023/10/22 02:37:37;;;;;;;1.53;1.43;;;10.90;99.90;;;;;;926751;151;27336;-76
2023/10/22 02:40:03;;;;;;;2.70;1.60;;;10.90;99.90;;;;;;923341;151;27327;-76
2023/10/22 02:42:30;;;;;;;3.17;1.70;;;10.80;99.90;;;;;;925987;151;27347;-76
2023/10/22 02:44:56;;;;;;;2.67;1.80;;;10.80;99.90;;;;;;925472;151;27400;-76
2023/10/22 02:47:23;;;;;;;2.57;1.70;;;10.80;99.90;;;;;;927631;151;27428;-76
2023/10/22 02:49:50;;;;;;;2.03;1.50;;;10.80;99.90;;;;;;924998;151;27347;-76
2023/10/22 02:52:16;;;;;;;2.57;1.53;;;10.80;99.90;;;;;;923496;151;27333;-76
2023/10/22 02:54:43;;;;;;;1.83;1.63;;;10.70;99.90;;;;;;924478;151;27390;-76
2023/10/22 02:57:09;;;;;;;2.03;1.27;;;10.70;99.90;;;;;;926715;150;27519;-76
2023/10/22 02:59:36;;;;;;;2.57;1.50;;;10.70;99.90;;;;;;932074;151;27911;-76
2023/10/22 03:02:02;;;;;;;1.70;1.40;;;10.70;99.90;;;;;;902451;153;27348;-76
2023/10/22 03:04:29;;;;;;;2.67;1.70;;;10.70;99.90;;;;;;930001;150;27283;-76
2023/10/22 03:06:56;;;;;;;4.03;1.50;;;10.60;99.90;;;;;;927386;150;27322;-76
2023/10/22 03:09:22;;;;;;;2.83;1.40;;;10.60;99.90;;;;;;903672;154;27389;-76
2023/10/22 03:11:49;;;;;;;1.53;1.43;;;10.60;99.90;;;;;;927241;152;27394;-76
2023/10/22 03:14:20;;;;;;;3.87;1.80;;;10.60;99.90;;;;;;925598;151;27456;-76
2023/10/22 03:16:42;;;;;;;1.83;1.40;;;10.60;99.90;;;;;;903563;153;27370;-76
2023/10/22 03:19:09;;;;;;;2.97;1.50;;;10.60;99.90;;;;;;904150;153;27413;-76
2023/10/22 03:21:36;;;;;;;1.60;1.30;;;10.60;99.90;;;;;;929415;150;27331;-76
2023/10/22 03:24:03;;;;;;;3.83;1.80;;;10.50;99.90;;;;;;932434;149;27898;-76
2023/10/22 03:26:29;;;;;;;3.03;1.80;;;10.50;99.90;;;;;;930387;150;27402;-76
2023/10/22 03:28:55;;;;;;;1.53;1.40;;;10.50;99.90;;;;;;903046;153;27467;-76
2023/10/22 03:31:21;;;;;;;2.97;1.53;;;10.50;99.90;;;;;;892573;156;27554;-76
2023/10/22 03:33:48;;;;;;;1.77;1.40;;;10.50;99.90;;;;;;929784;151;27344;-76
2023/10/22 03:36:15;;;;;;;2.47;1.37;;;10.50;99.90;;;;;;932426;150;27440;-76
2023/10/22 03:38:41;;;;;;;2.80;1.90;;;10.40;99.90;;;;;;931028;150;27432;-76
2023/10/22 03:41:08;;;;;;;2.47;1.30;;;10.40;99.90;;;;;;930958;151;27833;-76
2023/10/22 03:43:34;;;;;;;3.10;1.33;;;10.40;99.90;;;;;;928446;151;27916;-76
2023/10/22 03:46:02;;;;;;;2.97;1.67;;;10.40;99.90;;;;;;931357;150;27275;-76
2023/10/22 03:48:28;;;;;;;3.33;1.50;;;10.40;99.90;;;;;;904032;153;27438;-76
2023/10/22 03:50:54;;;;;;;2.03;1.50;;;10.30;99.90;;;;;;925753;152;27431;-76
2023/10/22 03:53:21;;;;;;;3.47;1.70;;;10.40;99.90;;;;;;924275;151;27460;-76
2023/10/22 03:55:47;;;;;;;7.40;1.90;;;10.40;99.90;;;;;;902387;154;27348;-76
2023/10/22 03:58:14;;;;;;;3.77;1.70;;;10.30;99.90;;;;;;891497;157;27548;-76
2023/10/22 04:00:41;;;;;;;2.57;1.30;;;10.30;99.90;;;;;;901841;154;27415;-76
2023/10/22 04:03:07;;;;;;;2.80;1.73;;;10.30;99.90;;;;;;923555;151;27413;-76
2023/10/22 04:05:34;;;;;;;4.87;1.53;;;10.30;99.90;;;;;;924518;151;27341;-76
2023/10/22 04:08:00;;;;;;;1.93;1.40;;;10.30;99.90;;;;;;899648;154;27564;-76
2023/10/22 04:10:27;;;;;;;2.73;1.40;;;10.30;99.90;;;;;;900024;154;27456;-76
2023/10/22 04:12:53;;;;;;;1.90;1.73;;;10.30;99.90;;;;;;923572;151;27378;-76
2023/10/22 04:15:20;;;;;;;5.03;1.53;;;10.30;99.90;;;;;;923645;151;27308;-76
2023/10/22 04:17:47;;;;;;;2.37;1.40;;;10.30;99.90;;;;;;922865;152;27406;-76
2023/10/22 04:20:13;;;;;;;2.97;1.50;;;10.30;99.90;;;;;;922201;151;27312;-76
2023/10/22 04:22:42;;;;;;;2.30;1.60;;;10.20;99.90;;;;;;923087;151;27434;-76
2023/10/22 04:25:09;;;;;;;3.60;1.37;;;10.20;99.90;;;;;;921432;151;27455;-76
2023/10/22 04:27:35;;;;;;;3.73;1.60;;;10.20;99.90;;;;;;922155;152;27338;-76
2023/10/22 04:30:04;;;;;;;3.80;1.87;;;10.20;99.90;;;;;;923296;151;27378;-76
2023/10/22 04:32:29;;;;;;;3.17;1.47;;;10.20;99.90;;;;;;920048;152;27343;-76
2023/10/22 04:34:55;;;;;;;4.53;2.03;;;10.10;99.90;;;;;;923062;151;27417;-76
2023/10/22 04:37:23;;;;;;;3.07;1.50;;;10.10;99.90;;;;;;923517;151;27480;-76
2023/10/22 04:39:48;;;;;;;5.67;1.63;;;10.10;99.90;;;;;;923278;151;27344;-76
2023/10/22 04:42:15;;;;;;;3.50;1.80;;;10.10;99.90;;;;;;923166;151;27424;-76
2023/10/22 04:44:42;;;;;;;4.13;1.73;;;10.10;99.90;;;;;;923676;151;27453;-76
2023/10/22 04:47:08;;;;;;;3.53;1.60;;;10.10;99.90;;;;;;922801;151;27363;-76
2023/10/22 04:49:35;;;;;;;2.53;1.43;;;10.10;99.90;;;;;;898827;154;27423;-76
2023/10/22 04:52:01;;;;;;;2.77;1.40;;;10.10;99.90;;;;;;923907;151;27375;-76
2023/10/22 04:54:28;;;;;;;4.27;1.70;;;10.10;99.90;;;;;;923140;151;27291;-76
2023/10/22 04:56:55;;;;;;;1.23;1.00;;;10.10;99.90;;;;;;924147;151;27362;-76
2023/10/22 04:59:21;;;;;;;3.47;1.37;;;10.10;99.90;;;;;;902375;153;27462;-76
2023/10/22 05:01:48;;;;;;;3.83;2.10;;;10.20;99.90;;;;;;932263;151;27459;-78
2023/10/22 05:04:14;;;;;;;1.93;1.40;;;10.20;99.90;;;;;;905081;153;27422;-79
2023/10/22 05:06:41;;;;;;;1.57;1.30;;;10.20;99.90;;;;;;931657;151;27441;-79
2023/10/22 05:09:08;;;;;;;2.17;1.27;;;10.20;99.90;;;;;;929035;150;27339;-79
2023/10/22 05:11:34;;;;;;;4.20;1.67;;;10.20;99.90;;;;;;928767;151;27322;-79
2023/10/22 05:14:01;;;;;;;1.60;1.33;;;10.20;99.90;;;;;;931457;150;27381;-79
2023/10/22 05:16:27;;;;;;;3.17;1.40;;;10.20;99.90;;;;;;929289;150;27479;-79
2023/10/22 05:18:54;;;;;;;2.00;1.40;;;10.20;99.90;;;;;;930703;150;27330;-79
2023/10/22 05:21:20;;;;;;;4.50;1.50;;;10.20;99.90;;;;;;928508;150;27509;-79
2023/10/22 05:23:47;;;;;;;3.10;1.60;;;10.20;99.90;;;;;;934362;150;27430;-77
2023/10/22 05:26:15;;;;;;;2.53;1.80;;;10.30;99.90;;;;;;932868;150;27390;-77
2023/10/22 05:28:40;;;;;;;4.37;1.67;;;10.30;99.90;;;;;;930299;150;27310;-77
2023/10/22 05:31:13;;;;;;;5.83;1.50;;;10.30;99.90;;;;;;932574;150;27313;-77
2023/10/22 05:33:39;;;;;;;2.90;0.97;;;10.30;99.90;;;;;;931115;150;27455;-77
2023/10/22 05:36:06;;;;;;;1.93;1.50;;;10.30;99.90;;;;;;932516;150;27298;-77
2023/10/22 05:38:32;;;;;;;2.00;1.33;;;10.30;99.90;;;;;;930746;150;27328;-77
2023/10/22 05:40:59;;;;;;;3.60;1.53;;;10.30;99.90;;;;;;931676;150;27324;-77
2023/10/22 05:43:26;;;;;;;2.17;1.50;;;10.30;99.90;;;;;;929587;150;27510;-77
2023/10/22 05:45:58;;;;;;;2.17;1.40;;;10.40;99.90;;;;;;931067;150;27300;-77
2023/10/22 05:48:24;;;;;;;3.23;1.60;;;10.40;99.90;;;;;;929749;150;27327;-78
2023/10/22 05:50:51;;;;;;;4.10;1.53;;;10.40;99.90;;;;;;904155;154;27454;-77
2023/10/22 05:53:18;;;;;;;3.37;1.93;;;10.50;99.90;;;;;;929435;150;27946;-76
2023/10/22 05:55:44;;;;;;;2.43;1.70;;;10.50;99.90;;;;;;902772;153;27397;-76
2023/10/22 05:58:11;;;;;;;4.53;1.80;;;10.60;99.90;;;;;;929629;151;27408;-76
2023/10/22 06:00:38;;;;;;;4.33;1.80;;;10.60;99.90;;;;;;904096;153;27364;-76
2023/10/22 06:03:04;;;;;;;3.63;1.90;;;10.70;99.90;;;;;;903672;153;27490;-76
2023/10/22 06:05:31;;;;;;;4.23;1.90;;;10.80;99.90;;;;;;903672;153;27393;-76
2023/10/22 06:07:57;;;;;;;2.60;1.50;;;10.80;99.90;;;;;;901921;153;27372;-76
2023/10/22 06:10:27;;;;;;;2.10;1.53;;;10.90;99.90;;;;;;923247;151;27406;-77
2023/10/22 06:12:50;;;;;;;3.43;1.97;;;11.10;99.90;;;;;;924188;151;27841;-76
2023/10/22 06:15:17;;;;;;;2.90;1.50;;;11.20;99.90;;;;;;924761;151;27371;-76
2023/10/22 06:17:44;;;;;;;4.27;1.60;;;11.40;99.90;;;;;;922232;151;28100;-76
2023/10/22 06:20:10;;;;;;;3.20;1.43;;;11.60;99.90;;;;;;925021;151;27383;-76
2023/10/22 06:22:37;;;;;;;5.00;1.73;;;11.80;99.90;;;;;;924441;151;27404;-76
2023/10/22 06:25:03;;;;;;;3.98;1.70;;;12.10;99.90;;;;;;923480;151;27310;-77
2023/10/22 06:27:30;;;;;;;3.10;1.57;;;12.40;99.90;;;;;;924334;151;27327;-77
2023/10/22 06:29:56;;;;;;;5.72;1.87;;;12.70;99.90;;;;;;926370;151;27432;-77
2023/10/22 06:32:23;;;;;;;3.65;1.30;;;13.10;99.90;;;;;;903362;153;27331;-77
2023/10/22 06:34:50;;;;;;;7.03;1.77;;;13.50;99.90;;;;;;904614;154;27502;-77
2023/10/22 06:37:16;;;;;;;4.60;1.40;;;13.90;99.90;;;;;;903908;154;27461;-77
2023/10/22 06:39:43;;;;;;;1.77;1.00;;;14.30;99.90;;;;;;908651;153;27344;-77
2023/10/22 06:42:09;;;;;;;4.70;1.60;;;14.80;99.90;;;;;;923892;151;27342;-77
2023/10/22 06:44:41;;;;;;;3.40;1.60;;;15.20;99.90;;;;;;925973;151;27332;-77
2023/10/22 06:47:03;;;;;;;2.60;1.20;;;15.60;99.90;;;;;;925776;150;27339;-77
2023/10/22 06:49:29;;;;;;;6.15;1.85;;;16.10;99.90;;;;;;924656;151;27292;-77
2023/10/22 06:51:56;;;;;;;4.10;1.37;;;16.50;99.90;;;;;;902649;153;27490;-77
2023/10/22 06:54:22;;;;;;;4.80;1.92;;;16.90;99.90;;;;;;892603;156;27403;-77
2023/10/22 06:56:49;;;;;;;3.17;1.55;;;17.20;99.90;;;;;;904646;153;27516;-76
2023/10/22 06:59:16;;;;;;;3.37;1.55;;;17.40;97.80;;;;;;901696;154;27862;-77
2023/10/22 07:01:42;;;;;;;3.08;1.10;;;17.40;95.50;;;;;;900272;154;27471;-77
2023/10/22 07:04:09;;;;;;;2.77;1.25;;;17.50;93.90;;;;;;923886;148;28259;-77
2023/10/22 07:06:36;;;;;;;2.10;1.27;;;17.40;92.80;;;;;;921475;151;27605;-77
2023/10/22 07:09:02;;;;;;;4.03;1.50;;;17.30;92.10;;;;;;923656;151;27360;-77
2023/10/22 07:11:33;;;;;;;2.33;1.17;;;17.10;91.70;;;;;;923440;151;27309;-77
2023/10/22 07:13:55;;;;;;;3.55;1.55;;;17.00;91.70;;;;;;899858;154;27420;-77
2023/10/22 07:16:22;;;;;;;4.65;1.40;;;16.80;91.90;;;;;;925099;151;27413;-77
2023/10/22 07:18:48;;;;;;;4.72;1.90;;;16.70;92.30;;;;;;924184;151;27440;-77
2023/10/22 07:21:15;;;;;;;3.35;1.60;;;16.60;92.80;;;;;;925152;151;27380;-77
2023/10/22 07:23:41;;;;;;;3.67;1.70;;;16.50;93.40;;;;;;922789;151;27444;-77
2023/10/22 07:26:08;;;;;;;4.62;1.57;;;16.40;93.80;;;;;;900486;154;27388;-77
2023/10/22 07:28:35;;;;;;;3.83;1.07;;;16.40;94.20;;;;;;888932;156;27455;-77
2023/10/22 07:31:01;;;;;;;5.58;1.62;;;16.30;94.60;;;;;;923750;151;27752;-77
2023/10/22 07:33:28;;;;;;;2.62;1.30;;;16.30;94.90;;;;;;925089;151;27300;-77
2023/10/22 07:35:54;;;;;;;3.33;1.50;;;16.30;95.00;;;;;;924337;151;27492;-77
2023/10/22 07:38:21;;;;;;;1.82;1.25;;;16.30;95.20;;;;;;927716;151;27327;-77
2023/10/22 07:40:50;;;;;;;4.72;1.60;;;16.30;95.20;;;;;;924424;151;28182;-77
2023/10/22 07:43:14;;;;;;;2.60;0.93;;;16.30;95.10;;;;;;922981;151;27755;-77
2023/10/22 07:45:41;;;;;;;2.52;1.22;;;16.30;95.00;;;;;;924029;151;27400;-78
2023/10/22 07:48:08;;;;;;;2.98;1.55;;;16.30;94.90;;;;;;926022;152;27373;-77
2023/10/22 07:50:34;;;;;;;3.27;1.60;;;16.30;95.00;;;;;;921959;151;27316;-77
2023/10/22 07:53:01;;;;;;;3.58;1.67;;;16.40;94.90;;;;;;922789;151;27479;-76
2023/10/22 07:55:27;;;;;;;5.22;2.40;;;16.40;95.20;;;;;;922639;151;27369;-77
2023/10/22 07:57:54;;;;;;;4.37;1.98;;;16.40;95.30;;;;;;922897;151;27337;-77
2023/10/22 08:00:20;;;;;;;3.45;1.70;;;16.40;95.50;;;;;;925781;150;27385;-77
2023/10/22 08:02:47;;;;;;;5.28;1.65;;;16.50;95.70;;;;;;902974;154;27405;-77
2023/10/22 08:05:14;;;;;;;3.33;1.67;;;16.50;95.60;;;;;;931713;150;27317;-77
2023/10/22 08:07:40;;;;;;;3.25;1.45;;;16.60;95.60;;;;;;931097;150;27457;-77
2023/10/22 08:10:07;;;;;;;4.53;1.40;;;16.70;95.40;;;;;;930682;150;27399;-77
2023/10/22 08:12:33;;;;;;;4.78;1.55;;;16.70;95.10;;;;;;928266;150;27379;-78
2023/10/22 08:15:00;;;;;;;5.22;1.47;;;16.80;94.80;;;;;;904393;153;27356;-79
2023/10/22 08:17:26;;;;;;;5.60;1.62;;;16.90;94.40;;;;;;930788;150;27379;-81
2023/10/22 08:19:53;;;;;;;3.58;1.25;;;17.00;94.30;;;;;;903933;153;27403;-80
2023/10/22 08:22:20;;;;;;;5.50;1.85;;;17.10;94.20;;;;;;929415;150;27324;-82
2023/10/22 08:24:49;;;;;;;4.15;1.80;;;17.20;94.10;;;;;;930918;150;27390;-80
2023/10/22 08:27:16;;;;;;;3.90;1.45;;;17.20;94.00;;;;;;929794;150;27491;-80
2023/10/22 08:29:42;;;;;;;3.80;1.72;;;17.40;93.80;;;;;;931342;150;27352;-81
2023/10/22 08:32:09;;;;;;;2.62;1.27;;;17.40;93.60;;;;;;906068;153;27433;-78
2023/10/22 08:34:35;;;;;;;3.58;1.85;;;17.50;93.20;;;;;;931322;150;27808;-81
2023/10/22 08:37:02;;;;;;;4.78;1.52;;;17.60;92.70;;;;;;930085;150;27372;-77
2023/10/22 08:39:28;;;;;;;4.40;2.02;;;17.70;92.40;;;;;;904002;153;27486;-78
2023/10/22 08:41:59;;;;;;;3.85;1.67;;;17.80;92.10;;;;;;929484;150;27434;-77
2023/10/22 08:44:24;;;;;;;4.17;1.30;;;17.90;91.90;;;;;;930663;150;27326;-79
2023/10/22 08:46:51;;;;;;;3.90;1.35;;;17.90;91.70;;;;;;905303;153;27330;-78
2023/10/22 08:49:18;;;;;;;2.95;1.47;;;18.00;91.40;;;;;;930515;150;27319;-77
2023/10/22 08:51:44;;;;;;;3.30;1.50;;;18.10;90.80;;;;;;902987;153;27493;-78
2023/10/22 08:54:11;;;;;;;3.02;1.75;;;18.20;90.00;;;;;;923932;151;27387;-78
2023/10/22 08:56:37;;;;;;;2.67;1.27;;;18.20;88.40;;;;;;925606;151;27396;-78
2023/10/22 08:59:05;;;;;;;5.40;1.60;;;18.20;87.90;;;;;;903499;153;27422;-79
2023/10/22 09:01:31;;;;;;;3.30;1.50;;;18.20;87.50;;;;;;924093;150;27379;-79
2023/10/22 09:03:57;;;;;;;4.62;1.82;;;18.20;87.50;;;;;;924243;150;27710;-78
2023/10/22 09:06:24;;;;;;;5.00;1.57;;;18.20;86.80;;;;;;923846;150;27422;-79
2023/10/22 09:08:51;;;;;;;4.10;1.30;;;18.30;87.20;;;;;;924366;151;27451;-78
2023/10/22 09:11:17;;;;;;;3.58;1.60;;;18.30;87.80;;;;;;924331;151;27329;-78
2023/10/22 09:13:46;;;;;;;4.40;1.95;;;18.30;88.70;;;;;;924728;150;27331;-79
2023/10/22 09:16:32;;;;;;;4.03;1.32;;;18.50;88.90;;;;;;924080;150;27429;-78
2023/10/22 09:18:58;;;;;;;2.17;1.05;;;18.60;89.80;;;;;;923799;151;27383;-78
2023/10/22 09:21:24;;;;;;;3.60;1.30;;;18.80;90.30;;;;;;924932;151;27342;-79
2023/10/22 09:24:06;;;;;;;4.50;1.30;;;19.00;90.10;;;;;;923272;150;27367;-78
2023/10/22 09:26:46;;;;;;;4.40;1.32;;;19.20;88.70;;;;;;924919;151;28648;-79
2023/10/22 09:29:11;;;;;;;5.40;2.02;;;19.40;88.00;;;;;;921787;151;27353;-77
2023/10/22 09:31:38;;;;;;;3.47;1.30;;;19.60;85.30;;;;;;924677;151;27374;-77
2023/10/22 09:34:05;;;;;;;3.52;1.45;;;19.70;83.90;;;;;;923957;151;27311;-77
2023/10/22 09:36:31;;;;;;;3.05;1.50;;;19.80;82.40;;;;;;900980;153;28891;-77
2023/10/22 09:38:59;;;;;;;4.33;1.35;;;19.80;81.30;;;;;;894104;156;27455;-77
2023/10/22 09:41:30;;;;;;;3.37;1.00;;;19.80;80.60;;;;;;907051;153;27320;-77
2023/10/22 09:43:54;;;;;;;4.58;1.95;;;19.80;79.90;;;;;;892357;155;27462;-77
2023/10/22 09:46:23;;;;;;;5.12;1.90;;;19.80;79.40;;;;;;923234;151;27412;-77
2023/10/22 09:48:47;;;;;;;5.90;1.95;;;19.80;79.00;;;;;;925151;151;28197;-77
2023/10/22 09:51:14;;;;;;;3.42;1.42;;;19.70;78.50;;;;;;926887;150;27983;-77
2023/10/22 09:53:40;;;;;;;3.62;1.42;;;19.70;78.60;;;;;;924037;151;27376;-77
2023/10/22 09:56:07;;;;;;;3.33;1.47;;;19.70;77.90;;;;;;901911;152;27475;-77
2023/10/22 09:58:33;;;;;;;3.47;1.45;;;19.70;78.30;;;;;;902017;153;27401;-77
2023/10/22 10:01:00;;;;;;;4.50;1.77;;;19.70;78.40;;;;;;893710;156;27481;-76
2023/10/22 10:03:26;;;;;;;2.95;1.60;;;19.80;78.60;;;;;;907449;153;27331;-77
2023/10/22 10:05:53;;;;;;;2.00;1.40;;;19.80;78.50;;;;;;924797;151;27487;-77
2023/10/22 10:08:20;;;;;;;3.22;1.30;;;20.00;78.80;;;;;;903877;153;27428;-77
2023/10/22 10:10:46;;;;;;;4.67;1.65;;;20.00;78.50;;;;;;931013;150;27754;-78
2023/10/22 10:13:13;;;;;;;5.10;1.70;;;20.20;78.70;;;;;;931090;150;27490;-77
2023/10/22 10:15:39;;;;;;;7.42;1.98;;;20.30;78.10;;;;;;931338;150;27323;-77
2023/10/22 10:18:09;;;;;;;3.22;1.60;;;20.40;77.70;;;;;;904472;153;28188;-77
2023/10/22 10:20:37;;;;;;;3.42;1.85;;;20.50;77.00;;;;;;931293;149;27396;-77
2023/10/22 10:23:02;;;;;;;3.92;1.42;;;20.60;77.10;;;;;;933095;150;27404;-77
2023/10/22 10:25:31;;;;;;;3.10;1.42;;;20.70;76.00;;;;;;930654;150;27351;-77
2023/10/22 10:28:04;;;;;;;3.67;1.47;;;20.70;75.60;;;;;;930330;150;27346;-77
2023/10/22 10:30:30;;;;;;;4.80;1.50;;;20.80;75.50;;;;;;901834;153;27430;-77
2023/10/22 10:32:57;;;;;;;2.83;1.62;;;20.80;75.20;;;;;;930517;150;27306;-76
2023/10/22 10:35:23;;;;;;;3.77;1.47;;;20.80;74.80;;;;;;904795;153;27431;-76
2023/10/22 10:38:15;;;;;;;4.20;1.90;;;20.80;74.40;;;;;;901693;153;27353;-76
2023/10/22 10:40:44;;;;;;;2.92;1.30;;;20.80;74.50;;;;;;929555;150;27333;-77
2023/10/22 10:43:11;;;;;;;3.58;1.42;;;20.90;74.90;;;;;;929757;150;27481;-76
2023/10/22 10:45:41;;;;;;;3.85;1.35;;;20.90;75.00;;;;;;930470;150;27358;-76
2023/10/22 10:48:04;;;;;;;2.37;1.67;;;21.00;75.00;;;;;;928953;150;27325;-76
2023/10/22 10:50:30;;;;;;;4.50;1.82;;;21.10;75.00;;;;;;929480;150;27370;-76
2023/10/22 10:52:57;;;;;;;3.42;1.42;;;21.20;74.60;;;;;;901462;153;27390;-76
2023/10/22 10:55:24;;;;;;;3.15;1.37;;;21.20;74.20;;;;;;931558;150;27349;-76
2023/10/22 10:57:50;;;;;;;3.60;1.67;;;21.30;73.90;;;;;;931992;150;27323;-76
2023/10/22 11:00:19;;;;;;;3.52;1.55;;;21.30;73.20;;;;;;930640;150;27348;-76
2023/10/22 11:02:49;;;;;;;3.70;1.45;;;21.30;72.80;;;;;;932012;149;27398;-76
2023/10/22 11:05:15;;;;;;;4.12;1.72;;;21.40;72.30;;;;;;903024;154;27342;-76
2023/10/22 11:07:45;;;;;;;4.78;1.77;;;21.40;72.30;;;;;;933018;150;27290;-76
2023/10/22 11:10:11;;;;;;;3.83;1.98;;;21.40;72.20;;;;;;903888;153;27427;-76
2023/10/22 11:12:38;;;;;;;3.50;1.55;;;21.40;72.10;;;;;;927856;150;27321;-76
2023/10/22 11:15:05;;;;;;;3.87;1.45;;;21.40;71.70;;;;;;931140;150;27397;-76
2023/10/22 11:17:31;;;;;;;3.42;1.57;;;21.50;71.70;;;;;;928583;150;27316;-76
2023/10/22 11:19:58;;;;;;;4.10;1.47;;;21.60;71.70;;;;;;903346;153;27434;-76
2023/10/22 11:22:24;;;;;;;3.85;1.65;;;21.60;71.50;;;;;;929518;149;27330;-77
2023/10/22 11:24:51;;;;;;;2.12;1.40;;;21.60;71.20;;;;;;901711;153;27442;-76
2023/10/22 11:27:18;;;;;;;2.45;1.50;;;21.60;70.90;;;;;;930098;150;27360;-76
2023/10/22 11:29:44;;;;;;;4.75;1.75;;;21.70;70.70;;;;;;931470;150;28308;-77
2023/10/22 11:32:13;;;;;;;3.80;1.32;;;21.60;70.30;;;;;;930044;150;27488;-76
2023/10/22 11:35:02;;;;;;;5.20;1.12;;;21.70;70.00;;;;;;929047;150;27667;-76
2023/10/22 11:37:28;;;;;;;3.75;1.47;;;21.70;69.60;;;;;;902526;153;27526;-76
2023/10/22 11:39:54;;;;;;;2.92;1.47;;;21.60;69.60;;;;;;930934;149;27382;-76
2023/10/22 11:42:21;;;;;;;2.27;1.55;;;21.60;69.50;;;;;;929773;150;27515;-76
2023/10/22 11:44:47;;;;;;;2.50;1.12;;;21.50;69.30;;;;;;929609;150;27389;-74
2023/10/22 11:47:26;;;;;;;5.28;1.98;;;21.50;69.00;;;;;;933638;149;27503;-74
2023/10/22 11:49:56;;;;;;;4.15;2.15;;;21.40;68.70;;;;;;903239;153;27397;-75
2023/10/22 11:52:51;;;;;;;3.33;1.90;;;21.40;68.50;;;;;;930914;150;27451;-75
2023/10/22 11:55:17;;;;;;;3.77;1.90;;;21.30;68.50;;;;;;927948;150;27686;-74
2023/10/22 11:57:43;;;;;;;4.70;2.12;;;21.10;68.40;;;;;;904293;153;28129;-76
2023/10/22 12:00:10;;;;;;;4.28;1.67;;;21.00;68.40;;;;;;930017;150;27298;-75
2023/10/22 12:02:36;;;;;;;5.78;1.85;;;20.90;68.50;;;;;;930400;150;27851;-75
2023/10/22 12:05:03;;;;;;;3.87;1.60;;;20.80;68.50;;;;;;904193;153;27475;-76
2023/10/22 12:10:00;;;;;;;6.12;1.80;;;20.70;68.50;;;;;;967868;145;38459;-75
2023/10/22 12:12:26;;;;;;;5.00;1.77;;;20.40;69.10;;;;;;959839;146;27299;-73
2023/10/22 12:14:53;;;;;;;4.97;2.00;;;20.40;69.50;;;;;;960223;146;27345;-74
2023/10/22 12:17:19;;;;;;;4.60;1.55;;;20.40;69.80;;;;;;960897;148;27292;-73
2023/10/22 12:19:46;;;;;;;3.98;1.70;;;20.40;69.90;;;;;;932507;150;27457;-74
2023/10/22 12:22:13;;;;;;;6.72;1.57;;;20.40;70.00;;;;;;960381;147;27275;-74
2023/10/22 12:24:39;;;;;;;3.67;1.95;;;20.40;70.10;;;;;;960171;146;27257;-74
2023/10/22 12:27:06;;;;;;;4.30;1.85;;;20.40;70.20;;;;;;959692;149;27338;-73
2023/10/22 12:29:32;;;;;;;3.72;1.65;;;20.40;70.20;;;;;;958891;149;27651;-75
2023/10/22 12:31:59;;;;;;;2.75;1.45;;;20.50;70.20;;;;;;959826;148;27275;-74
2023/10/22 12:34:27;;;;;;;3.33;2.20;;;20.50;70.30;;;;;;959964;147;27335;-73
2023/10/22 12:36:52;;;;;;;3.80;2.40;;;20.50;70.30;;;;;;958977;147;27410;-75
2023/10/22 12:39:19;;;;;;;2.45;1.40;;;20.50;70.30;;;;;;932728;150;27281;-75
2023/10/22 12:41:45;;;;;;;3.90;1.60;;;20.60;70.20;;;;;;931325;150;27988;-74
2023/10/22 12:44:12;;;;;;;3.27;1.60;;;20.60;71.00;;;;;;912767;154;27457;-76
2023/10/22 12:46:38;;;;;;;3.17;1.55;;;20.60;69.90;;;;;;944041;150;27722;-73
2023/10/22 12:49:05;;;;;;;3.42;1.60;;;20.60;69.90;;;;;;944336;149;27433;-72